createdAt,value
2023-01-12T00:02:26.561Z,13.40
2023-01-12T00:04:58.179Z,13.50
2023-01-12T00:07:33.459Z,13.30
2023-01-12T00:10:05.376Z,13.00
2023-01-12T00:12:36.955Z,13.60
2023-01-12T00:15:09.808Z,14.40
2023-01-12T00:17:41.525Z,14.10
2023-01-12T00:20:13.253Z,15.10
2023-01-12T00:22:49.729Z,13.30
2023-01-12T00:25:21.357Z,19.30
2023-01-12T00:27:53.378Z,14.40
2023-01-12T00:30:24.959Z,17.10
2023-01-12T00:32:56.564Z,14.70
2023-01-12T00:35:28.264Z,16.30
2023-01-12T00:37:59.876Z,16.70
2023-01-12T00:40:31.569Z,16.90
2023-01-12T00:43:25.641Z,16.30
2023-01-12T00:45:57.940Z,17.80
2023-01-12T00:48:33.640Z,17.20
2023-01-12T00:51:08.342Z,18.20
2023-01-12T00:53:39.921Z,17.80
2023-01-12T00:56:15.054Z,17.10
2023-01-12T00:58:47.155Z,16.40
2023-01-12T01:01:21.194Z,18.00
2023-01-12T01:03:52.975Z,18.20
2023-01-12T01:06:25.111Z,18.70
2023-01-12T01:08:59.036Z,17.90
2023-01-12T01:11:30.680Z,18.50
2023-01-12T01:14:03.072Z,17.60
2023-01-12T01:16:38.157Z,18.10
2023-01-12T01:19:10.257Z,17.70
2023-01-12T01:21:41.999Z,17.10
2023-01-12T01:24:17.891Z,19.20
2023-01-12T01:26:50.175Z,17.30
2023-01-12T01:29:21.860Z,17.90
2023-01-12T01:31:56.295Z,17.50
2023-01-12T01:34:27.999Z,17.20
2023-01-12T01:36:59.973Z,17.30
2023-01-12T01:39:31.604Z,16.40
2023-01-12T01:42:03.241Z,15.40
2023-01-12T01:44:44.114Z,16.20
2023-01-12T01:47:28.296Z,16.50
2023-01-12T01:50:04.316Z,15.00
2023-01-12T01:52:42.327Z,16.30
2023-01-12T01:55:26.775Z,15.30
2023-01-12T01:58:20.427Z,16.20
2023-01-12T02:00:52.802Z,15.60
2023-01-12T02:03:25.992Z,16.20
2023-01-12T02:06:00.794Z,16.70
2023-01-12T02:08:45.500Z,15.20
2023-01-12T02:11:36.591Z,16.70
2023-01-12T02:14:28.722Z,15.60
2023-01-12T02:17:44.820Z,14.90
2023-01-12T02:20:52.903Z,15.00
2023-01-12T02:23:58.614Z,13.80
2023-01-12T02:26:37.071Z,15.10
2023-01-12T02:29:37.441Z,13.50
2023-01-12T02:32:14.752Z,14.30
2023-01-12T02:35:06.005Z,14.20
2023-01-12T02:38:14.793Z,14.90
2023-01-12T02:41:00.580Z,15.10
2023-01-12T02:43:36.533Z,15.50
2023-01-12T02:46:25.941Z,15.30
2023-01-12T02:49:01.291Z,15.90
2023-01-12T02:51:59.509Z,16.20
2023-01-12T02:54:34.645Z,16.30
2023-01-12T02:57:09.277Z,15.80
2023-01-12T02:59:48.114Z,15.40
2023-01-12T03:02:25.213Z,14.90
2023-01-12T03:04:58.261Z,16.70
2023-01-12T03:08:00.528Z,15.70
2023-01-12T03:10:35.271Z,15.70
2023-01-12T03:13:15.129Z,15.90
2023-01-12T03:15:55.732Z,15.90
2023-01-12T03:18:32.835Z,16.20
2023-01-12T03:21:12.010Z,15.80
2023-01-12T03:23:53.981Z,15.50
2023-01-12T03:26:28.421Z,16.60
2023-01-12T03:29:07.267Z,15.90
2023-01-12T03:31:39.191Z,17.20
2023-01-12T03:34:12.468Z,18.90
2023-01-12T03:37:25.853Z,17.30
2023-01-12T03:40:18.973Z,16.10
2023-01-12T03:43:12.175Z,16.70
2023-01-12T03:46:03.031Z,15.20
2023-01-12T03:48:46.780Z,14.90
2023-01-12T03:51:25.685Z,14.80
2023-01-12T03:53:59.050Z,14.00
2023-01-12T03:56:36.529Z,14.50
2023-01-12T03:59:09.736Z,14.70
2023-01-12T04:01:43.902Z,13.90
2023-01-12T04:04:15.961Z,14.10
2023-01-12T04:06:48.199Z,14.10
2023-01-12T04:09:23.197Z,14.10
2023-01-12T04:12:13.089Z,13.20
2023-01-12T04:14:48.051Z,13.10
2023-01-12T04:17:24.323Z,13.50
2023-01-12T04:19:56.007Z,12.60
2023-01-12T04:22:46.175Z,13.10
2023-01-12T04:25:20.694Z,13.60
2023-01-12T04:27:57.298Z,14.40
2023-01-12T04:30:30.907Z,14.10
2023-01-12T04:35:43.423Z,13.30
2023-01-12T04:38:16.897Z,14.80
2023-01-12T04:40:54.466Z,13.00
2023-01-12T04:43:26.085Z,13.40
2023-01-12T04:45:57.816Z,14.70
2023-01-12T04:48:29.430Z,14.20
2023-01-12T04:51:01.473Z,15.00
2023-01-12T04:53:34.492Z,14.20
2023-01-12T04:56:07.649Z,15.00
2023-01-12T04:58:39.309Z,14.80
2023-01-12T05:01:21.092Z,13.80
2023-01-12T05:03:56.060Z,13.30
2023-01-12T05:06:28.955Z,13.00
2023-01-12T05:09:20.128Z,14.50
2023-01-12T05:11:51.958Z,13.10
2023-01-12T05:14:23.906Z,13.60
2023-01-12T05:16:59.101Z,13.00
2023-01-12T05:19:30.886Z,12.70
2023-01-12T05:22:02.615Z,14.00
2023-01-12T05:24:34.250Z,14.90
2023-01-12T05:27:05.892Z,13.30
2023-01-12T05:29:40.030Z,13.80
2023-01-12T05:32:11.748Z,13.90
2023-01-12T05:34:46.308Z,13.90
2023-01-12T05:37:18.035Z,14.80
2023-01-12T05:39:49.635Z,14.80
2023-01-12T05:42:40.121Z,15.50
2023-01-12T05:45:12.488Z,15.20
2023-01-12T05:47:44.223Z,15.20
2023-01-12T05:50:15.899Z,15.20
2023-01-12T05:52:52.309Z,14.00
2023-01-12T05:55:24.209Z,13.20
2023-01-12T05:57:55.891Z,14.60
2023-01-12T06:00:27.644Z,14.40
2023-01-12T06:02:59.282Z,15.30
2023-01-12T06:05:31.263Z,17.50
2023-01-12T06:08:03.063Z,13.30
2023-01-12T06:10:38.358Z,16.70
2023-01-12T06:13:28.628Z,19.10
2023-01-12T06:16:07.882Z,26.00
2023-01-12T06:18:40.747Z,25.50
2023-01-12T06:21:12.817Z,21.60
2023-01-12T06:23:46.102Z,19.00
2023-01-12T06:26:17.921Z,15.50
2023-01-12T06:28:49.648Z,15.80
2023-01-12T06:31:21.413Z,22.40
2023-01-12T06:33:53.086Z,18.40
2023-01-12T06:36:24.845Z,14.90
2023-01-12T06:38:56.481Z,15.90
2023-01-12T06:41:47.082Z,18.10
2023-01-12T06:44:19.054Z,15.90
2023-01-12T06:46:50.713Z,14.20
2023-01-12T06:49:22.440Z,15.40
2023-01-12T06:51:54.246Z,14.80
2023-01-12T06:54:26.168Z,14.80
2023-01-12T06:56:58.064Z,16.00
2023-01-12T06:59:29.770Z,16.90
2023-01-12T07:02:01.483Z,18.40
2023-01-12T07:04:33.241Z,15.80
2023-01-12T07:07:05.030Z,18.40
2023-01-12T07:09:38.826Z,15.30
2023-01-12T07:12:11.829Z,16.40
2023-01-12T07:14:44.208Z,17.40
2023-01-12T07:17:18.855Z,18.00
2023-01-12T07:19:53.559Z,15.80
2023-01-12T07:22:31.454Z,17.80
2023-01-12T07:25:07.406Z,17.30
2023-01-12T07:27:40.492Z,14.20
2023-01-12T07:30:13.764Z,15.10
2023-01-12T07:32:46.669Z,15.70
2023-01-12T07:35:19.065Z,15.10
2023-01-12T07:37:54.062Z,14.20
2023-01-12T07:40:26.394Z,15.30
2023-01-12T07:43:02.415Z,12.20
2023-01-12T07:45:37.983Z,12.10
2023-01-12T07:48:09.920Z,12.00
2023-01-12T07:50:42.709Z,11.70
2023-01-12T07:53:16.051Z,12.10
2023-01-12T07:55:48.291Z,11.60
2023-01-12T07:58:20.403Z,10.70
2023-01-12T08:00:52.075Z,11.00
2023-01-12T08:03:23.756Z,11.50
2023-01-12T08:06:01.028Z,9.90
2023-01-12T08:08:34.987Z,10.30
2023-01-12T08:11:09.487Z,10.50
2023-01-12T08:13:42.154Z,10.00
2023-01-12T08:16:21.111Z,9.60
2023-01-12T08:19:01.476Z,9.00
2023-01-12T08:21:46.195Z,9.90
2023-01-12T08:24:24.223Z,8.40
2023-01-12T08:26:59.797Z,8.30
2023-01-12T08:29:42.265Z,8.60
2023-01-12T08:32:18.144Z,9.40
2023-01-12T08:34:53.859Z,8.20
2023-01-12T08:37:25.823Z,7.90
2023-01-12T08:39:57.839Z,7.40
2023-01-12T08:42:31.978Z,8.10
2023-01-12T08:45:07.166Z,7.60
2023-01-12T08:47:40.903Z,6.70
2023-01-12T08:52:44.489Z,7.10
2023-01-12T08:55:16.255Z,7.10
2023-01-12T08:57:47.907Z,7.00
2023-01-12T09:00:20.533Z,6.30
2023-01-12T09:02:52.143Z,6.60
2023-01-12T09:05:35.081Z,6.10
2023-01-12T09:08:06.974Z,6.50
2023-01-12T09:10:39.261Z,6.10
2023-01-12T09:13:15.887Z,7.00
2023-01-12T09:16:01.313Z,7.00
2023-01-12T09:18:43.019Z,6.10
2023-01-12T09:21:17.506Z,7.10
2023-01-12T09:23:49.775Z,7.10
2023-01-12T09:26:28.341Z,7.40
2023-01-12T09:29:01.391Z,7.00
2023-01-12T09:31:34.938Z,8.10
2023-01-12T09:34:06.646Z,7.40
2023-01-12T09:36:39.767Z,7.80
2023-01-12T09:39:26.862Z,7.80
2023-01-12T09:42:28.665Z,7.90
2023-01-12T09:45:18.799Z,8.00
2023-01-12T09:47:57.253Z,7.60
2023-01-12T09:50:34.406Z,8.10
2023-01-12T09:53:23.452Z,7.70
2023-01-12T09:56:02.999Z,7.30
2023-01-12T09:58:37.632Z,7.60
2023-01-12T10:01:24.145Z,7.40
2023-01-12T10:04:02.256Z,8.20
2023-01-12T10:09:18.657Z,6.80
2023-01-12T10:12:20.037Z,7.10
2023-01-12T10:15:05.829Z,7.30
2023-01-12T10:17:55.364Z,7.80
2023-01-12T10:20:33.999Z,7.90
2023-01-12T10:23:08.508Z,7.60
2023-01-12T10:25:46.449Z,7.60
2023-01-12T10:28:27.519Z,8.00
2023-01-12T10:31:00.364Z,7.80
2023-01-12T10:33:34.619Z,6.90
2023-01-12T10:36:21.704Z,7.00
2023-01-12T10:38:57.810Z,6.90
2023-01-12T10:41:31.867Z,7.10
2023-01-12T10:44:03.499Z,7.00
2023-01-12T10:46:36.219Z,7.30
2023-01-12T10:49:19.777Z,8.40
2023-01-12T10:51:59.958Z,8.70
2023-01-12T10:54:37.781Z,8.70
2023-01-12T10:57:24.091Z,7.30
2023-01-12T11:00:02.654Z,8.20
2023-01-12T11:02:44.768Z,7.70
2023-01-12T11:05:38.587Z,8.10
2023-01-12T11:08:43.340Z,8.10
2023-01-12T11:16:45.891Z,7.90
2023-01-12T11:19:19.107Z,8.20
2023-01-12T11:22:16.338Z,7.50
2023-01-12T11:24:57.692Z,7.90
2023-01-12T11:27:35.946Z,8.40
2023-01-12T11:30:15.977Z,8.10
2023-01-12T11:32:59.253Z,8.30
2023-01-12T11:35:53.203Z,9.40
2023-01-12T11:38:35.625Z,8.50
2023-01-12T11:41:14.073Z,8.60
2023-01-12T11:43:52.680Z,8.70
2023-01-12T11:46:42.612Z,9.00
2023-01-12T11:49:31.762Z,9.10
2023-01-12T11:52:03.699Z,7.90
2023-01-12T11:54:38.654Z,8.70
2023-01-12T11:57:28.286Z,9.40
2023-01-12T12:00:25.752Z,9.80
2023-01-12T12:03:13.978Z,9.60
2023-01-12T12:06:07.540Z,11.30
2023-01-12T12:09:08.481Z,10.90
2023-01-12T12:11:57.662Z,8.00
2023-01-12T12:14:46.012Z,7.60
2023-01-12T12:17:33.546Z,7.50
2023-01-12T12:20:17.067Z,7.20
2023-01-12T12:23:16.291Z,7.10
2023-01-12T12:25:57.834Z,6.10
2023-01-12T12:28:52.863Z,6.40
2023-01-12T12:31:24.646Z,7.20
2023-01-12T12:34:28.975Z,7.50
2023-01-12T12:37:02.784Z,6.10
2023-01-12T12:42:48.128Z,6.50
2023-01-12T12:45:21.607Z,6.40
2023-01-12T12:48:36.963Z,7.20
2023-01-12T12:51:09.931Z,5.90
2023-01-12T12:53:46.212Z,6.60
2023-01-12T12:56:20.954Z,6.80
2023-01-12T12:58:53.873Z,7.10
2023-01-12T13:01:27.683Z,6.90
2023-01-12T13:04:03.167Z,7.00
2023-01-12T13:06:40.240Z,7.30
2023-01-12T13:09:11.890Z,7.20
2023-01-12T13:12:10.353Z,6.90
2023-01-12T13:14:43.801Z,6.50
2023-01-12T13:17:21.759Z,7.30
2023-01-12T13:20:10.697Z,6.70
2023-01-12T13:22:49.752Z,6.80
2023-01-12T13:25:23.267Z,8.20
2023-01-12T13:27:57.742Z,9.50
2023-01-12T13:30:29.603Z,7.60
2023-01-12T13:33:24.315Z,7.00
2023-01-12T13:36:00.994Z,7.20
2023-01-12T13:38:53.533Z,7.60
2023-01-12T13:41:53.313Z,7.70
2023-01-12T13:44:35.276Z,7.50
2023-01-12T13:47:23.792Z,8.60
2023-01-12T13:49:59.260Z,9.30
2023-01-12T13:52:34.238Z,8.40
2023-01-12T13:55:20.363Z,9.10
2023-01-12T13:58:17.017Z,9.20
2023-01-12T14:01:03.136Z,6.40
2023-01-12T14:03:44.303Z,7.90
2023-01-12T14:06:21.829Z,7.20
2023-01-12T14:09:05.210Z,8.70
2023-01-12T14:11:39.683Z,7.20
2023-01-12T14:14:30.838Z,7.00
2023-01-12T14:17:33.315Z,7.50
2023-01-12T14:20:14.555Z,7.60
2023-01-12T14:22:46.972Z,6.90
2023-01-12T14:25:23.084Z,6.80
2023-01-12T14:27:57.151Z,6.70
2023-01-12T14:30:32.707Z,6.50
2023-01-12T14:33:06.310Z,5.60
2023-01-12T14:35:46.916Z,7.00
2023-01-12T14:38:19.427Z,6.10
2023-01-12T14:41:03.078Z,5.80
2023-01-12T14:43:56.023Z,5.70
2023-01-12T14:46:33.739Z,6.50
2023-01-12T14:49:25.543Z,6.50
2023-01-12T14:51:59.957Z,6.40
2023-01-12T14:54:34.399Z,7.50
2023-01-12T14:57:09.340Z,8.10
2023-01-12T14:59:48.731Z,8.30
2023-01-12T15:02:39.236Z,7.10
2023-01-12T15:05:10.828Z,7.30
2023-01-12T15:08:21.608Z,7.20
2023-01-12T15:11:06.855Z,7.90
2023-01-12T15:13:38.768Z,7.90
2023-01-12T15:16:29.159Z,7.80
2023-01-12T15:19:19.910Z,6.80
2023-01-12T15:22:10.428Z,6.90
2023-01-12T15:25:00.906Z,7.10
2023-01-12T15:27:32.598Z,8.10
2023-01-12T15:30:08.595Z,9.40
2023-01-12T15:32:47.715Z,7.60
2023-01-12T15:35:24.209Z,8.00
2023-01-12T15:37:58.455Z,6.70
2023-01-12T15:40:30.985Z,6.60
2023-01-12T15:43:04.777Z,6.20
2023-01-12T15:45:42.204Z,6.00
2023-01-12T15:48:14.598Z,7.60
2023-01-12T15:50:46.864Z,6.00
2023-01-12T15:53:22.375Z,6.30
2023-01-12T15:55:55.334Z,7.60
2023-01-12T15:58:28.347Z,6.60
2023-01-12T16:01:00.072Z,6.20
2023-01-12T16:04:00.543Z,7.50
2023-01-12T16:06:31.245Z,7.20
2023-01-12T16:09:03.453Z,7.00
2023-01-12T16:11:35.077Z,7.40
2023-01-12T16:14:07.102Z,7.60
2023-01-12T16:16:38.926Z,7.40
2023-01-12T16:19:19.432Z,5.60
2023-01-12T16:21:55.301Z,7.90
2023-01-12T16:24:31.080Z,7.10
2023-01-12T16:27:02.896Z,8.00
2023-01-12T16:29:34.569Z,7.90
2023-01-12T16:32:06.753Z,8.70
2023-01-12T16:34:39.226Z,9.20
2023-01-12T16:37:15.969Z,9.50
2023-01-12T16:39:47.633Z,9.40
2023-01-12T16:42:19.801Z,10.50
2023-01-12T16:44:54.207Z,10.00
2023-01-12T16:47:25.849Z,11.00
2023-01-12T16:49:57.832Z,9.10
2023-01-12T16:52:31.763Z,7.40
2023-01-12T16:55:06.098Z,8.60
2023-01-12T16:57:39.271Z,9.30
2023-01-12T17:00:11.458Z,8.60
2023-01-12T17:02:43.335Z,10.70
2023-01-12T17:05:15.387Z,10.00
2023-01-12T17:07:50.724Z,8.50
2023-01-12T17:10:28.315Z,8.60
2023-01-12T17:13:02.519Z,9.10
2023-01-12T17:15:35.093Z,9.10
2023-01-12T17:18:07.438Z,8.90
2023-01-12T17:20:39.853Z,8.50
2023-01-12T17:23:13.030Z,11.20
2023-01-12T17:25:44.715Z,11.40
2023-01-12T17:28:17.103Z,9.60
2023-01-12T17:30:48.974Z,9.70
2023-01-12T17:33:21.724Z,9.00
2023-01-12T17:35:56.779Z,8.90
2023-01-12T17:38:28.511Z,9.90
2023-01-12T17:41:00.264Z,8.90
2023-01-12T17:43:31.952Z,9.90
2023-01-12T17:46:05.078Z,10.00
2023-01-12T17:48:37.471Z,10.40
2023-01-12T17:51:12.660Z,8.50
2023-01-12T17:53:45.943Z,11.50
2023-01-12T17:56:18.288Z,9.30
2023-01-12T17:58:55.572Z,8.50
2023-01-12T18:01:31.914Z,10.70
2023-01-12T18:04:07.623Z,9.60
2023-01-12T18:06:41.066Z,9.10
2023-01-12T18:09:14.175Z,9.60
2023-01-12T18:11:48.855Z,9.60
2023-01-12T18:14:26.186Z,10.50
2023-01-12T18:17:00.263Z,10.40
2023-01-12T18:19:36.934Z,10.80
2023-01-12T18:22:11.796Z,10.90
2023-01-12T18:24:43.483Z,11.20
2023-01-12T18:27:15.163Z,9.60
2023-01-12T18:29:47.226Z,10.40
2023-01-12T18:32:19.107Z,9.70
2023-01-12T18:34:50.819Z,11.80
2023-01-12T18:37:22.480Z,11.10
2023-01-12T18:39:54.216Z,10.10
2023-01-12T18:42:46.951Z,11.00
2023-01-12T18:45:19.951Z,9.80
2023-01-12T18:48:10.910Z,10.00
2023-01-12T18:51:01.160Z,9.80
2023-01-12T18:53:33.480Z,11.00
2023-01-12T18:56:06.061Z,10.10
2023-01-12T18:58:39.276Z,10.10
2023-01-12T19:01:11.929Z,11.70
2023-01-12T19:03:44.002Z,10.10
2023-01-12T19:06:37.484Z,10.50
2023-01-12T19:09:27.911Z,10.80
2023-01-12T19:11:59.621Z,11.20
2023-01-12T19:14:50.003Z,8.90
2023-01-12T19:17:27.469Z,8.60
2023-01-12T19:20:02.316Z,9.40
2023-01-12T19:22:52.716Z,10.80
2023-01-12T19:25:42.940Z,8.70
2023-01-12T19:28:32.783Z,9.00
2023-01-12T19:31:07.427Z,9.80
2023-01-12T19:33:39.635Z,10.40
2023-01-12T19:36:16.469Z,10.20
2023-01-12T19:38:50.825Z,8.70
2023-01-12T19:41:41.080Z,8.70
2023-01-12T19:44:12.702Z,10.60
2023-01-12T19:46:44.485Z,10.20
2023-01-12T19:49:17.624Z,10.90
2023-01-12T19:51:50.810Z,9.50
2023-01-12T19:54:22.512Z,9.70
2023-01-12T19:56:54.167Z,9.80
2023-01-12T19:59:25.843Z,9.70
2023-01-12T20:01:57.535Z,9.20
2023-01-12T20:04:30.021Z,8.20
2023-01-12T20:07:02.111Z,8.30
2023-01-12T20:09:33.722Z,8.30
2023-01-12T20:12:06.157Z,9.30
2023-01-12T20:14:37.768Z,9.00
2023-01-12T20:17:10.324Z,9.80
2023-01-12T20:19:42.196Z,8.50
2023-01-12T20:22:14.210Z,9.20
2023-01-12T20:24:47.464Z,10.80
2023-01-12T20:27:19.250Z,10.60
2023-01-12T20:29:50.909Z,14.80
2023-01-12T20:32:22.586Z,15.80
2023-01-12T20:34:54.265Z,15.50
2023-01-12T20:37:25.881Z,14.90
2023-01-12T20:39:58.103Z,11.30
2023-01-12T20:42:31.748Z,9.30
2023-01-12T20:45:04.864Z,9.80
2023-01-12T20:47:36.515Z,11.50
2023-01-12T20:50:11.871Z,9.20
2023-01-12T20:52:44.057Z,9.80
2023-01-12T20:55:15.780Z,10.20
2023-01-12T20:57:50.590Z,11.40
2023-01-12T21:00:22.425Z,11.30
2023-01-12T21:02:54.118Z,11.60
2023-01-12T21:05:26.777Z,11.50
2023-01-12T21:08:07.397Z,10.80
2023-01-12T21:10:47.252Z,10.70
2023-01-12T21:13:20.838Z,9.40
2023-01-12T21:16:00.425Z,9.30
2023-01-12T21:18:33.650Z,9.90
2023-01-12T21:21:06.142Z,9.30
2023-01-12T21:23:38.732Z,9.60
2023-01-12T21:26:11.281Z,11.40
2023-01-12T21:28:43.253Z,10.10
2023-01-12T21:31:15.234Z,10.60
2023-01-12T21:33:47.336Z,10.70
2023-01-12T21:36:21.770Z,10.10
2023-01-12T21:38:56.972Z,11.20
2023-01-12T21:41:28.645Z,9.90
2023-01-12T21:44:02.822Z,9.80
2023-01-12T21:46:34.865Z,10.30
2023-01-12T21:49:15.639Z,23.00
2023-01-12T21:51:47.550Z,27.10
2023-01-12T21:54:19.631Z,18.50
2023-01-12T21:56:51.342Z,13.60
2023-01-12T21:59:22.974Z,10.90
2023-01-12T22:02:01.025Z,12.80
2023-01-12T22:04:32.868Z,11.00
2023-01-12T22:07:07.249Z,10.90
2023-01-12T22:09:39.609Z,11.70
2023-01-12T22:12:11.247Z,12.10
2023-01-12T22:14:42.823Z,12.40
2023-01-12T22:17:14.457Z,12.20
2023-01-12T22:19:46.077Z,11.20
2023-01-12T22:22:17.693Z,13.50
2023-01-12T22:24:49.262Z,11.10
2023-01-12T22:27:21.268Z,11.50
2023-01-12T22:29:52.971Z,12.10
2023-01-12T22:32:26.972Z,13.10
2023-01-12T22:35:01.775Z,12.20
2023-01-12T22:37:35.869Z,12.10
2023-01-12T22:40:11.823Z,13.30
2023-01-12T22:43:02.108Z,12.20
2023-01-12T22:45:35.737Z,11.60
2023-01-12T22:50:39.042Z,12.40
2023-01-12T22:53:10.720Z,12.50
2023-01-12T22:55:42.414Z,13.10
2023-01-12T22:58:14.006Z,12.80
2023-01-12T23:00:45.862Z,13.90
2023-01-12T23:03:17.781Z,12.50
2023-01-12T23:05:56.185Z,13.80
2023-01-12T23:08:28.018Z,10.20
2023-01-12T23:11:07.385Z,11.50
2023-01-12T23:13:44.068Z,12.80
2023-01-12T23:16:17.807Z,12.30
2023-01-12T23:21:25.232Z,9.90
2023-01-12T23:24:00.052Z,10.40
2023-01-12T23:26:33.047Z,10.20
2023-01-12T23:29:04.893Z,9.40
2023-01-12T23:31:36.710Z,12.40
2023-01-12T23:34:08.596Z,12.90
2023-01-12T23:36:40.709Z,11.80
2023-01-12T23:39:12.455Z,12.00
2023-01-12T23:41:44.285Z,12.60
2023-01-12T23:44:17.528Z,9.70
2023-01-12T23:46:52.644Z,10.20
2023-01-12T23:49:25.572Z,9.50
2023-01-12T23:52:00.180Z,9.10
2023-01-12T23:54:32.303Z,9.80
2023-01-12T23:57:04.218Z,8.80
2023-01-12T23:59:36.209Z,9.70
